Time;durP1;ratioP1;P1;durP2;ratioP2;P2;SDS_P1;SDS_P2;PMS_P1;PMS_P2;Temp;Humidity;BMP_temperature;BMP_pressure;BME280_temperature;BME280_humidity;BME280_pressure;Samples;Min_cycle;Max_cycle;Signal;HPM_P1;HPM_P2
2022/10/05 00:00:19;;;;;;;15.63;9.50;;;;;;;10.15;71.16;100821.03;4983131;28;101784;-89
2022/10/05 00:02:47;;;;;;;13.68;8.25;;;;;;;10.33;70.86;100818.00;4974290;28;100315;-89
2022/10/05 00:05:25;;;;;;;20.40;10.00;;;;;;;10.59;70.06;100856.72;4975439;28;96806;-89
2022/10/05 00:07:52;;;;;;;12.75;9.05;;;;;;;10.66;69.97;100854.78;5004060;27;98071;-89
2022/10/05 00:10:23;;;;;;;16.15;8.05;;;;;;;10.68;69.84;100842.50;4998029;27;96821;-89
2022/10/05 00:12:49;;;;;;;19.48;10.13;;;;;;;10.69;69.30;100854.72;4980175;27;101127;-89
2022/10/05 00:15:17;;;;;;;15.52;8.98;;;;;;;10.62;70.03;100853.16;4979643;28;97116;-89
2022/10/05 00:17:42;;;;;;;17.00;9.40;;;;;;;10.62;70.19;100859.25;4989017;28;96859;-89
2022/10/05 00:20:23;;;;;;;15.10;7.82;;;;;;;10.60;69.89;100865.44;4991995;28;100262;-89
2022/10/05 00:22:57;;;;;;;16.15;9.43;;;;;;;10.69;70.15;100859.97;4974073;28;101481;-89
2022/10/05 00:25:23;;;;;;;16.73;9.07;;;;;;;10.68;69.96;100858.25;4973203;28;97042;-89
2022/10/05 00:27:57;;;;;;;14.63;9.20;;;;;;;10.69;69.96;100849.47;4971552;28;96992;-88
2022/10/05 00:30:25;;;;;;;14.25;9.48;;;;;;;10.78;69.40;100843.97;4982356;28;100795;-90
2022/10/05 00:32:51;;;;;;;12.23;8.40;;;;;;;10.78;69.53;100838.69;5006872;28;98290;-90
2022/10/05 00:35:17;;;;;;;14.82;8.48;;;;;;;10.68;69.76;100842.50;4980267;28;97117;-90
2022/10/05 00:37:44;;;;;;;15.93;9.30;;;;;;;10.57;70.14;100836.66;4988431;28;96953;-91
2022/10/05 00:40:18;;;;;;;13.05;8.80;;;;;;;10.49;70.45;100825.47;4991434;27;100136;-89
2022/10/05 00:42:54;;;;;;;16.60;8.43;;;;;;;10.48;70.94;100824.63;4999417;27;99634;-89
2022/10/05 00:45:23;;;;;;;16.33;9.73;;;;;;;10.62;70.27;100816.41;4982936;28;97136;-88
2022/10/05 00:48:15;;;;;;;12.73;7.95;;;;;;;10.60;70.00;100797.19;4976954;28;97297;-90
2022/10/05 00:50:53;;;;;;;15.25;7.93;;;;;;;10.66;69.98;100797.03;4980407;28;98484;-90
2022/10/05 00:53:25;;;;;;;17.58;8.13;;;;;;;10.85;69.87;100815.78;4975887;28;101773;-89
2022/10/05 00:56:10;;;;;;;16.02;7.80;;;;;;;10.81;69.57;100816.75;4994116;27;97403;-89
2022/10/05 00:58:57;;;;;;;14.57;7.85;;;;;;;10.91;69.36;100817.34;5015093;28;97253;-89
2022/10/05 01:01:33;;;;;;;14.05;7.97;;;;;;;10.85;69.01;100806.13;4999350;28;101585;-89
2022/10/05 01:04:21;;;;;;;12.52;8.05;;;;;;;10.91;68.61;100794.59;4995346;28;100626;-88
2022/10/05 01:07:01;;;;;;;14.98;8.07;;;;;;;11.08;68.63;100812.50;4986613;28;97265;-88
2022/10/05 01:09:39;;;;;;;16.98;8.35;;;;;;;11.01;68.55;100788.16;4998816;28;97877;-90
2022/10/05 01:12:42;;;;;;;15.73;7.88;;;;;;;11.13;68.32;100812.38;4989064;27;100350;-87
2022/10/05 01:15:16;;;;;;;14.15;7.88;;;;;;;11.00;68.23;100785.59;4998171;28;101419;-89
2022/10/05 01:18:13;;;;;;;12.38;7.53;;;;;;;11.12;68.56;100805.41;5006215;28;97055;-90
2022/10/05 01:20:42;;;;;;;12.35;7.95;;;;;;;11.06;68.32;100796.78;4980421;28;97391;-89
2022/10/05 01:23:25;;;;;;;12.38;7.22;;;;;;;10.92;68.03;100782.31;4991754;28;101805;-89
2022/10/05 01:26:22;;;;;;;12.85;7.88;;;;;;;11.12;68.40;100813.28;4987015;27;101298;-87
2022/10/05 01:29:30;;;;;;;16.08;8.20;;;;;;;11.06;68.01;100807.31;5030829;28;96698;-90
2022/10/05 01:31:57;;;;;;;10.23;7.18;;;;;;;11.04;68.29;100805.63;5002797;28;97084;-90
2022/10/05 01:34:37;;;;;;;12.27;7.50;;;;;;;11.05;68.54;100805.59;4995198;28;100333;-90
2022/10/05 01:37:09;;;;;;;12.32;6.55;;;;;;;11.05;67.62;100802.97;4983581;28;101287;-89
2022/10/05 01:39:55;;;;;;;10.40;7.00;;;;;;;10.82;68.37;100766.84;4994799;27;97621;-88
2022/10/05 01:42:46;;;;;;;14.02;7.47;;;;;;;11.02;68.01;100789.88;4995968;27;97020;-87
2022/10/05 01:45:44;;;;;;;12.48;7.00;;;;;;;11.00;68.25;100790.84;5013808;28;99803;-88
2022/10/05 01:48:21;;;;;;;10.18;6.95;;;;;;;10.96;67.91;100791.84;4902710;28;101517;-88
2022/10/05 01:51:09;;;;;;;12.40;7.45;;;;;;;10.95;67.90;100793.59;4977272;28;96942;-89
2022/10/05 01:54:13;;;;;;;12.80;7.10;;;;;;;10.85;68.44;100777.25;4987759;28;98087;-87
2022/10/05 01:56:49;;;;;;;14.35;6.47;;;;;;;10.95;68.21;100798.84;5000068;28;98012;-88
2022/10/05 01:59:33;;;;;;;9.48;6.60;;;;;;;10.93;68.39;100802.44;5011307;28;97764;-88
2022/10/05 02:02:16;;;;;;;12.52;6.57;;;;;;;10.74;68.20;100766.19;4967843;28;96721;-89
2022/10/05 02:04:52;;;;;;;12.80;6.95;;;;;;;10.93;68.13;100795.41;4977528;28;96949;-88
2022/10/05 02:07:26;;;;;;;11.80;6.75;;;;;;;10.84;68.20;100772.88;4979766;28;101473;-89
2022/10/05 02:10:02;;;;;;;10.60;6.70;;;;;;;10.91;68.03;100794.59;4980431;28;101218;-88
2022/10/05 02:12:30;;;;;;;11.25;6.50;;;;;;;10.83;67.76;100784.31;4989212;28;98139;-88
2022/10/05 02:15:02;;;;;;;11.57;6.95;;;;;;;10.92;67.83;100819.94;4991799;28;97653;-87
2022/10/05 02:17:35;;;;;;;12.30;7.00;;;;;;;10.84;67.99;100806.16;4978706;28;102106;-89
2022/10/05 02:20:05;;;;;;;10.70;6.57;;;;;;;10.86;68.07;100812.25;4978811;28;100205;-89
2022/10/05 02:22:40;;;;;;;9.73;6.35;;;;;;;10.86;67.87;100818.34;4990816;28;98196;-89
2022/10/05 02:25:16;;;;;;;9.82;7.20;;;;;;;10.80;68.25;100799.28;4979050;28;100266;-89
2022/10/05 02:27:51;;;;;;;12.07;7.00;;;;;;;10.80;68.15;100813.28;4977940;28;99984;-88
2022/10/05 02:30:18;;;;;;;12.70;6.38;;;;;;;10.79;67.96;100803.69;4967894;28;101781;-89
2022/10/05 02:33:00;;;;;;;9.25;6.28;;;;;;;10.75;68.23;100798.53;4991907;28;97019;-89
2022/10/05 02:35:26;;;;;;;11.95;6.78;;;;;;;10.75;68.38;100798.53;4988513;28;96762;-89
2022/10/05 02:38:04;;;;;;;10.23;6.65;;;;;;;10.70;68.43;100793.41;4980735;28;101681;-88
2022/10/05 02:40:39;;;;;;;11.35;6.25;;;;;;;10.57;68.38;100773.66;5007916;28;101837;-89
2022/10/05 02:43:10;;;;;;;11.60;6.72;;;;;;;10.53;68.40;100767.63;5010588;28;98176;-88
2022/10/05 02:45:51;;;;;;;11.68;6.25;;;;;;;10.64;68.52;100797.06;4986819;28;97399;-88
2022/10/05 02:48:28;;;;;;;8.43;6.27;;;;;;;10.69;68.73;100790.84;5018548;28;101500;-87
2022/10/05 02:51:10;;;;;;;13.93;6.45;;;;;;;10.66;68.80;100783.91;5021223;28;100219;-89
2022/10/05 02:54:05;;;;;;;9.63;6.32;;;;;;;10.72;68.81;100788.13;5004177;28;96685;-87
2022/10/05 02:56:38;;;;;;;11.05;5.72;;;;;;;10.56;68.62;100770.16;4967053;28;97691;-89
2022/10/05 02:59:31;;;;;;;12.60;6.13;;;;;;;10.68;69.10;100779.47;4994813;28;98947;-89
2022/10/05 03:02:06;;;;;;;9.93;5.72;;;;;;;10.56;69.51;100769.28;4993020;28;100558;-90
2022/10/05 03:05:05;;;;;;;10.80;5.90;;;;;;;10.58;69.82;100778.84;4981073;28;96981;-88
2022/10/05 03:07:40;;;;;;;10.90;5.70;;;;;;;10.62;69.42;100783.13;4981488;28;96871;-90
2022/10/05 03:10:40;;;;;;;9.88;5.47;;;;;;;10.64;69.72;100785.69;4991669;28;99579;-90
2022/10/05 03:13:23;;;;;;;7.28;5.60;;;;;;;10.63;69.44;100783.97;4994920;28;98331;-88
2022/10/05 03:15:59;;;;;;;9.95;6.18;;;;;;;10.56;70.05;100772.78;4979590;28;97385;-90
2022/10/05 03:19:02;;;;;;;11.35;5.20;;;;;;;10.54;69.80;100764.09;4997999;28;96711;-89
2022/10/05 03:21:56;;;;;;;8.20;5.57;;;;;;;10.56;69.86;100764.91;4948488;28;101289;-89
2022/10/05 03:24:33;;;;;;;9.82;4.97;;;;;;;10.39;70.37;100739.13;4991387;28;100928;-90
2022/10/05 03:27:27;;;;;;;10.70;5.38;;;;;;;10.51;70.91;100763.31;4984813;28;96862;-90
2022/10/05 03:30:15;;;;;;;12.27;4.90;;;;;;;10.19;70.87;100721.22;4989969;28;97282;-90
2022/10/05 03:32:59;;;;;;;8.25;4.80;;;;;;;10.30;71.48;100759.50;4983362;28;101479;-88
2022/10/05 03:35:40;;;;;;;10.10;5.22;;;;;;;10.19;71.27;100728.25;4981450;28;100750;-90
2022/10/05 03:38:30;;;;;;;6.40;4.90;;;;;;;10.30;71.77;100742.00;4997883;28;96913;-89
2022/10/05 03:41:06;;;;;;;14.32;4.97;;;;;;;10.36;71.29;100741.81;4977546;28;96898;-90
2022/10/05 03:43:50;;;;;;;8.05;4.40;;;;;;;10.48;71.54;100755.53;4999458;28;100479;-90
2022/10/05 03:46:24;;;;;;;8.75;4.57;;;;;;;10.52;70.97;100758.00;5009027;28;100664;-90
2022/10/05 03:49:22;;;;;;;10.68;4.93;;;;;;;10.55;70.86;100757.94;4980312;28;97129;-90
2022/10/05 03:51:55;;;;;;;7.78;4.43;;;;;;;10.51;71.33;100752.81;5002282;28;98018;-89
2022/10/05 03:54:30;;;;;;;13.80;5.15;;;;;;;10.58;71.34;100752.59;4980511;28;100493;-90
2022/10/05 03:57:22;;;;;;;9.27;4.70;;;;;;;10.62;70.79;100740.25;4988397;28;99968;-90
2022/10/05 04:00:05;;;;;;;9.32;4.25;;;;;;;10.69;71.12;100760.19;4988160;28;96871;-90
2022/10/05 04:03:01;;;;;;;13.13;4.55;;;;;;;10.67;70.90;100755.88;4984361;28;96835;-87
2022/10/05 04:05:31;;;;;;;9.95;4.60;;;;;;;10.72;70.76;100769.75;4991772;28;100395;-90
2022/10/05 04:08:22;;;;;;;8.40;4.47;;;;;;;10.72;70.54;100767.13;4994592;28;100522;-91
2022/10/05 04:10:50;;;;;;;6.53;3.90;;;;;;;10.75;70.78;100764.41;4989563;28;97427;-90
2022/10/05 04:13:43;;;;;;;12.45;4.75;;;;;;;10.55;71.08;100736.94;4976231;27;96987;-89
2022/10/05 04:16:26;;;;;;;14.35;5.10;;;;;;;10.76;70.56;100764.38;4997914;28;101250;-89
2022/10/05 04:19:03;;;;;;;11.02;5.63;;;;;;;10.73;70.52;100750.44;4970446;28;100869;-89
2022/10/05 04:21:33;;;;;;;11.55;4.78;;;;;;;10.72;70.65;100744.34;5001348;28;97122;-90
2022/10/05 04:24:03;;;;;;;10.52;4.30;;;;;;;10.64;70.55;100739.28;4989679;28;97416;-90
2022/10/05 04:26:44;;;;;;;9.90;5.13;;;;;;;10.63;70.47;100742.84;5008562;28;98466;-90
2022/10/05 04:29:32;;;;;;;11.83;5.03;;;;;;;10.56;70.75;100727.28;4993273;28;100465;-90
2022/10/05 04:32:25;;;;;;;9.52;5.05;;;;;;;10.59;70.63;100735.97;4996679;28;96741;-91
2022/10/05 04:35:10;;;;;;;13.75;4.82;;;;;;;10.69;70.83;100748.81;4983234;28;96917;-91
2022/10/05 04:37:47;;;;;;;11.63;4.93;;;;;;;10.59;70.54;100733.34;4981811;28;100497;-90
2022/10/05 04:40:45;;;;;;;9.98;4.95;;;;;;;10.59;70.98;100727.22;4980622;28;101530;-90
2022/10/05 04:43:23;;;;;;;8.27;4.80;;;;;;;10.69;70.72;100744.44;4998741;27;98102;-90
2022/10/05 04:46:12;;;;;;;7.80;4.55;;;;;;;10.68;70.95;100742.72;5005822;28;96909;-89
2022/10/05 04:49:17;;;;;;;10.52;5.15;;;;;;;10.69;71.43;100740.94;4997508;28;98433;-89
2022/10/05 04:51:45;;;;;;;10.95;5.10;;;;;;;10.69;70.95;100730.44;4988045;28;100199;-89
2022/10/05 04:54:34;;;;;;;7.80;5.20;;;;;;;10.63;70.83;100713.94;4999681;28;97074;-91
2022/10/05 04:57:09;;;;;;;11.00;4.35;;;;;;;10.56;71.13;100715.03;4971134;28;97236;-90
2022/10/05 04:59:58;;;;;;;8.82;4.93;;;;;;;10.68;71.15;100728.75;4991884;28;100931;-91
2022/10/05 05:02:46;;;;;;;11.38;4.72;;;;;;;10.72;70.60;100731.22;5023204;27;98232;-89
2022/10/05 05:05:37;;;;;;;7.75;4.40;;;;;;;10.56;70.86;100725.53;5011463;28;97363;-89
2022/10/05 05:08:23;;;;;;;8.75;4.68;;;;;;;10.51;71.62;100719.56;4998074;28;97227;-90
2022/10/05 05:11:13;;;;;;;9.95;5.00;;;;;;;10.54;71.78;100732.59;5020940;27;98015;-89
2022/10/05 05:14:16;;;;;;;8.98;5.18;;;;;;;10.58;71.42;100733.34;4990591;28;101050;-90
2022/10/05 05:16:44;;;;;;;12.95;4.97;;;;;;;10.62;71.60;100735.88;4984408;28;97149;-88
2022/10/05 05:19:48;;;;;;;12.45;4.70;;;;;;;10.65;71.42;100737.56;4994773;28;97183;-89
2022/10/05 05:22:54;;;;;;;19.67;5.25;;;;;;;10.69;71.78;100733.94;4987988;28;101575;-88
2022/10/05 05:25:33;;;;;;;11.05;5.00;;;;;;;10.72;71.53;100738.22;4979257;28;101597;-89
2022/10/05 05:28:08;;;;;;;9.48;4.35;;;;;;;10.77;71.63;100734.56;4975631;28;97434;-89
2022/10/05 05:30:48;;;;;;;10.45;4.50;;;;;;;10.81;71.33;100738.81;4991682;28;97446;-88
2022/10/05 05:33:26;;;;;;;9.25;4.15;;;;;;;10.90;71.27;100737.69;4991652;28;102126;-89
2022/10/05 05:36:23;;;;;;;7.15;4.63;;;;;;;10.92;71.27;100730.66;4991935;28;100494;-88
2022/10/05 05:39:03;;;;;;;7.47;4.07;;;;;;;10.99;71.09;100731.31;4980882;28;97241;-91
2022/10/05 05:41:38;;;;;;;15.80;4.35;;;;;;;11.06;71.11;100733.75;5005671;27;98091;-91
2022/10/05 05:44:27;;;;;;;8.45;4.32;;;;;;;11.19;70.65;100739.47;4978968;28;99758;-88
2022/10/05 05:47:10;;;;;;;8.38;4.75;;;;;;;11.13;71.00;100726.53;4992763;28;100946;-93
2022/10/05 05:50:17;;;;;;;11.25;5.28;;;;;;;11.25;70.92;100743.69;4999729;28;97037;-90
2022/10/05 05:53:00;;;;;;;13.07;5.32;;;;;;;11.06;70.76;100715.34;5028068;27;97372;-89
2022/10/05 05:55:47;;;;;;;15.23;5.63;;;;;;;11.15;70.95;100737.84;4979785;28;100392;-90
2022/10/05 05:59:00;;;;;;;10.18;5.10;;;;;;;11.04;70.78;100714.53;5006294;28;99914;-89
2022/10/05 06:02:35;;;;;;;10.18;5.13;;;;;;;11.44;70.12;100752.75;4923236;28;97267;-91
2022/10/05 06:05:29;;;;;;;15.65;5.60;;;;;;;11.41;70.51;100757.25;4916988;28;97802;-89
2022/10/05 06:19:58;;;;;;;9.88;4.93;;;;;;;13.28;65.88;100754.34;4941075;28;97296;-93
2022/10/05 06:22:58;;;;;;;10.05;4.45;;;;;;;13.42;65.07;100743.28;4923296;28;98252;-92
2022/10/05 06:26:11;;;;;;;12.65;4.78;;;;;;;13.85;63.50;100756.56;4916366;28;101258;-89
2022/10/05 06:29:23;;;;;;;10.48;4.45;;;;;;;13.93;63.04;100723.66;4925759;28;96982;-88
2022/10/05 06:36:21;;;;;;;8.52;4.22;;;;;;;14.11;63.58;100768.66;4922542;28;98001;-90
2022/10/05 06:39:24;;;;;;;8.30;4.13;;;;;;;14.17;64.33;100768.41;4903280;28;101231;-92
2022/10/05 06:41:53;;;;;;;10.20;4.40;;;;;;;14.15;63.64;100767.63;4935085;28;97377;-90
2022/10/05 06:44:26;;;;;;;14.90;4.78;;;;;;;13.96;64.49;100751.66;4935300;28;97508;-91
2022/10/05 06:47:16;;;;;;;8.30;5.03;;;;;;;14.01;64.22;100754.97;4954624;28;100331;-92
2022/10/05 06:50:17;;;;;;;6.43;3.88;;;;;;;14.26;64.44;100776.81;4939859;28;98260;-88
2022/10/05 06:53:19;;;;;;;10.15;4.53;;;;;;;14.48;63.78;100778.53;4918085;28;97401;-88
2022/10/05 06:55:51;;;;;;;13.77;5.03;;;;;;;14.48;62.88;100786.44;4919887;28;97466;-90
2022/10/05 06:58:41;;;;;;;13.27;4.38;;;;;;;14.69;62.53;100761.78;4938294;28;101875;-89
2022/10/05 07:01:11;;;;;;;9.77;4.05;;;;;;;15.24;61.29;100765.47;4921769;28;100741;-89
2022/10/05 07:04:01;;;;;;;14.27;4.93;;;;;;;15.49;61.53;100760.75;4917138;28;98415;-88
2022/10/05 07:06:48;;;;;;;11.50;3.92;;;;;;;15.20;61.20;100764.78;4923773;28;98412;-86
2022/10/05 07:09:43;;;;;;;12.82;3.75;;;;;;;15.11;61.93;100760.75;4916760;28;101178;-84
2022/10/05 07:12:26;;;;;;;11.02;3.45;;;;;;;15.08;61.70;100760.06;4931742;28;99741;-87
2022/10/05 07:15:13;;;;;;;6.93;3.42;;;;;;;15.04;62.12;100774.31;4939197;28;97529;-84
2022/10/05 07:17:45;;;;;;;8.57;3.38;;;;;;;14.97;62.60;100752.59;4986607;28;97664;-83
2022/10/05 07:20:12;;;;;;;7.38;3.22;;;;;;;15.04;62.42;100769.03;4986802;28;102096;-84
2022/10/05 07:22:50;;;;;;;9.02;3.13;;;;;;;15.07;62.27;100775.06;4998602;28;98174;-83
2022/10/05 07:25:36;;;;;;;9.60;3.88;;;;;;;15.07;62.63;100764.50;5001429;28;97178;-83
2022/10/05 07:28:07;;;;;;;6.53;3.55;;;;;;;15.17;62.42;100779.00;4977612;28;97198;-83
2022/10/05 07:30:52;;;;;;;9.82;3.40;;;;;;;15.38;62.35;100778.94;4992223;28;101719;-83
2022/10/05 07:33:50;;;;;;;8.05;2.85;;;;;;;15.74;60.54;100778.16;4984730;28;101656;-83
2022/10/05 07:39:40;;;;;;;7.90;3.38;;;;;;;15.76;60.30;100784.22;5002764;28;97150;-83
2022/10/05 07:42:31;;;;;;;9.52;3.50;;;;;;;15.71;60.78;100781.81;4969383;28;101911;-83
2022/10/05 07:45:09;;;;;;;10.73;3.22;;;;;;;15.79;60.85;100778.78;4991077;28;101193;-83
2022/10/05 07:47:39;;;;;;;6.20;3.35;;;;;;;16.03;60.00;100767.00;4969991;28;97356;-84
2022/10/05 07:50:21;;;;;;;8.18;2.78;;;;;;;16.38;58.96;100776.78;4987189;28;97158;-83
2022/10/05 07:52:55;;;;;;;4.20;2.95;;;;;;;16.48;58.50;100738.25;4974490;28;101601;-84
2022/10/05 07:55:25;;;;;;;9.65;3.20;;;;;;;16.79;58.20;100764.03;4976959;28;101587;-84
2022/10/05 07:58:10;;;;;;;6.25;3.33;;;;;;;16.80;57.94;100749.00;4992550;28;97075;-83
2022/10/05 08:01:05;;;;;;;7.05;3.53;;;;;;;16.86;58.01;100762.75;4988587;28;97425;-84
2022/10/05 08:04:08;;;;;;;9.73;3.03;;;;;;;17.15;57.63;100763.84;4970391;28;101753;-84
2022/10/05 08:06:39;;;;;;;6.18;2.88;;;;;;;17.77;56.63;100757.78;4991477;28;97920;-84
2022/10/05 08:09:36;;;;;;;5.15;2.65;;;;;;;18.40;54.62;100757.66;4988977;28;96777;-90
2022/10/05 08:12:20;;;;;;;5.47;3.10;;;;;;;18.62;54.26;100748.41;4964013;28;97105;-92
2022/10/05 08:15:09;;;;;;;10.07;2.92;;;;;;;18.73;53.99;100751.25;4973752;28;101480;-91
2022/10/05 08:17:53;;;;;;;6.47;2.75;;;;;;;18.59;53.18;100756.53;4989481;28;101333;-91
2022/10/05 08:20:34;;;;;;;8.48;2.58;;;;;;;18.45;53.47;100739.63;4971279;28;97006;-90
2022/10/05 08:23:22;;;;;;;9.20;2.83;;;;;;;18.64;53.35;100754.47;4968039;28;96995;-90
2022/10/05 08:26:25;;;;;;;10.10;3.53;;;;;;;19.18;52.52;100746.72;4990953;28;98576;-92
2022/10/05 08:29:03;;;;;;;7.93;3.50;;;;;;;20.15;51.03;100743.94;4966975;28;100549;-92
2022/10/05 08:31:34;;;;;;;5.82;2.80;;;;;;;20.71;48.55;100739.25;4987200;28;97249;-92
2022/10/05 08:34:06;;;;;;;5.40;2.15;;;;;;;21.29;47.78;100738.72;4956017;28;97089;-89
2022/10/05 08:36:38;;;;;;;4.88;2.05;;;;;;;22.29;45.51;100737.59;4973189;28;101513;-91
2022/10/05 08:39:11;;;;;;;3.80;2.00;;;;;;;22.50;45.93;100741.28;4964069;28;101329;-92
2022/10/05 08:41:52;;;;;;;6.50;2.15;;;;;;;22.29;46.05;100733.09;4974845;28;96801;-89
2022/10/05 08:45:00;;;;;;;10.13;2.03;;;;;;;22.48;45.90;100751.22;4986400;28;98142;-89
2022/10/05 08:47:26;;;;;;;4.72;2.00;;;;;;;22.53;46.19;100743.72;4939580;28;98459;-89
2022/10/05 08:50:19;;;;;;;4.70;2.03;;;;;;;23.03;44.33;100738.06;4980220;28;98387;-88
2022/10/05 08:53:05;;;;;;;5.82;2.15;;;;;;;23.14;44.11;100729.16;4963156;28;96861;-88
2022/10/05 08:55:45;;;;;;;7.20;2.15;;;;;;;23.20;44.13;100723.31;4978554;28;96994;-89
2022/10/05 08:58:10;;;;;;;6.97;2.22;;;;;;;23.22;43.81;100719.53;4978410;28;99725;-89
2022/10/05 09:00:47;;;;;;;8.85;2.47;;;;;;;23.29;43.46;100730.59;4985241;28;101930;-90
2022/10/05 09:03:35;;;;;;;5.90;1.92;;;;;;;23.16;43.97;100737.94;4973624;28;97166;-89
2022/10/05 09:06:39;;;;;;;6.72;2.65;;;;;;;22.75;44.25;100724.16;4970587;28;97191;-88
2022/10/05 09:09:05;;;;;;;4.28;2.53;;;;;;;22.66;44.25;100737.41;4910498;28;101479;-89
2022/10/05 09:11:35;;;;;;;5.57;2.63;;;;;;;22.11;44.13;100739.81;4962621;28;96756;-89
2022/10/05 09:14:01;;;;;;;4.60;1.35;;;;;;;21.92;43.90;100724.28;4955511;28;97033;-90
2022/10/05 09:16:48;;;;;;;5.47;1.60;;;;;;;21.78;43.94;100737.84;4973816;28;96981;-90
2022/10/05 09:19:51;;;;;;;10.32;3.05;;;;;;;22.02;44.23;100730.66;4989981;28;101544;-90
2022/10/05 09:22:20;;;;;;;3.45;1.50;;;;;;;21.90;44.28;100734.25;4968826;28;101297;-81
2022/10/05 09:24:57;;;;;;;3.20;1.60;;;;;;;22.02;44.66;100738.69;4987617;28;96960;-82
2022/10/05 09:27:47;;;;;;;4.85;1.70;;;;;;;22.26;45.01;100735.16;4970758;28;97566;-81
2022/10/05 09:30:47;;;;;;;4.20;1.63;;;;;;;22.53;43.97;100738.34;4982791;28;98094;-85
2022/10/05 09:33:44;;;;;;;6.73;2.10;;;;;;;22.79;44.09;100739.00;4938146;28;99444;-86
2022/10/05 09:36:14;;;;;;;3.08;1.70;;;;;;;23.06;45.07;100732.44;4892076;28;97122;-85
2022/10/05 09:39:04;;;;;;;3.20;1.48;;;;;;;23.05;47.18;100745.00;4912656;28;96880;-83
2022/10/05 09:41:53;;;;;;;4.75;2.00;;;;;;;22.79;46.39;100747.03;4930753;28;101243;-85
2022/10/05 09:44:49;;;;;;;6.18;2.17;;;;;;;22.10;45.12;100738.09;4934156;28;98009;-85
2022/10/05 09:47:37;;;;;;;4.95;1.58;;;;;;;21.72;46.18;100748.97;4924066;28;96773;-84
2022/10/05 09:50:43;;;;;;;8.15;1.80;;;;;;;21.44;46.28;100738.50;4914516;28;97422;-85
2022/10/05 09:53:46;;;;;;;6.43;1.42;;;;;;;20.95;47.57;100735.81;4919943;28;100020;-85
2022/10/05 09:56:33;;;;;;;3.67;1.90;;;;;;;21.00;47.89;100734.53;4925952;28;97463;-84
2022/10/05 09:59:07;;;;;;;6.60;2.08;;;;;;;20.88;48.65;100708.69;4916172;28;96793;-86
2022/10/05 10:01:50;;;;;;;4.15;1.98;;;;;;;21.13;47.72;100696.28;4943295;28;97301;-85
2022/10/05 10:05:02;;;;;;;7.72;1.98;;;;;;;21.14;48.76;100722.00;4943380;28;98261;-84
2022/10/05 10:07:51;;;;;;;7.38;1.92;;;;;;;21.05;48.08;100718.19;4914175;28;101532;-88
2022/10/05 10:10:17;;;;;;;5.90;1.90;;;;;;;20.93;48.28;100716.38;4914200;28;96974;-85
2022/10/05 10:12:48;;;;;;;7.50;2.15;;;;;;;21.13;48.22;100710.47;4957761;28;97094;-86
2022/10/05 10:15:41;;;;;;;5.63;1.85;;;;;;;21.11;48.37;100716.88;4998694;28;101836;-86
2022/10/05 10:18:22;;;;;;;5.43;1.95;;;;;;;21.45;47.74;100713.50;4985365;28;101323;-84
2022/10/05 10:20:50;;;;;;;4.75;1.85;;;;;;;21.16;46.93;100696.91;5005344;28;97234;-86
2022/10/05 10:23:41;;;;;;;7.68;2.03;;;;;;;21.19;48.12;100686.00;5006216;28;97008;-88
2022/10/05 10:26:41;;;;;;;3.38;1.73;;;;;;;21.52;48.39;100697.03;5002125;28;100040;-82
2022/10/05 10:29:23;;;;;;;6.82;2.45;;;;;;;21.83;48.01;100687.59;4996944;28;97948;-81
2022/10/05 10:32:10;;;;;;;5.45;1.98;;;;;;;21.75;46.13;100687.31;4995680;28;96944;-81
2022/10/05 10:34:51;;;;;;;4.15;2.13;;;;;;;21.64;49.40;100693.44;4981336;28;96961;-80
2022/10/05 10:37:34;;;;;;;9.73;2.00;;;;;;;21.70;46.61;100682.31;4991315;28;101798;-82
2022/10/05 10:40:19;;;;;;;6.40;2.15;;;;;;;21.66;47.78;100683.50;4999500;28;98223;-85
2022/10/05 10:43:12;;;;;;;4.47;1.50;;;;;;;21.52;47.03;100683.66;4980362;28;97107;-80
2022/10/05 10:46:03;;;;;;;3.10;1.40;;;;;;;21.64;45.94;100675.63;4988322;28;96881;-81
2022/10/05 10:48:28;;;;;;;2.57;1.50;;;;;;;21.48;44.62;100683.06;4989828;28;101567;-80
2022/10/05 10:51:03;;;;;;;5.03;1.30;;;;;;;21.26;44.52;100694.41;4973334;28;100983;-80
2022/10/05 10:53:47;;;;;;;5.18;1.83;;;;;;;21.32;44.19;100683.31;4996450;28;97101;-81
2022/10/05 10:56:28;;;;;;;9.07;2.05;;;;;;;21.29;45.08;100694.19;4995825;28;97178;-76
2022/10/05 10:59:26;;;;;;;3.00;1.65;;;;;;;21.42;44.88;100689.69;4986329;28;101370;-77
2022/10/05 11:02:06;;;;;;;2.40;1.40;;;;;;;21.48;46.32;100680.38;4993950;28;101998;-76
2022/10/05 11:04:52;;;;;;;4.38;1.30;;;;;;;21.38;44.16;100682.91;4998122;28;97168;-76
2022/10/05 11:07:36;;;;;;;9.10;1.70;;;;;;;21.35;45.27;100684.88;5016638;28;97027;-76
2022/10/05 11:10:18;;;;;;;3.08;1.40;;;;;;;21.04;45.21;100692.47;4987787;28;101341;-76
2022/10/05 11:12:56;;;;;;;3.05;1.70;;;;;;;20.93;45.91;100682.56;5006372;28;102071;-76
2022/10/05 11:15:41;;;;;;;2.78;1.70;;;;;;;20.75;47.23;100683.88;4993499;28;97132;-76
2022/10/05 11:18:32;;;;;;;3.45;1.50;;;;;;;20.71;46.40;100658.34;5009940;28;97151;-76
2022/10/05 11:21:33;;;;;;;4.85;1.73;;;;;;;20.53;46.45;100673.84;4996374;28;101584;-77
2022/10/05 11:24:07;;;;;;;2.45;1.48;;;;;;;20.40;46.00;100672.97;5007882;28;102090;-78
2022/10/05 11:26:44;;;;;;;4.40;1.40;;;;;;;20.54;46.08;100659.56;4994236;28;97341;-79
2022/10/05 11:29:29;;;;;;;4.13;1.42;;;;;;;20.61;46.39;100652.84;4975518;28;100603;-78
2022/10/05 11:32:15;;;;;;;5.38;1.70;;;;;;;20.42;45.77;100642.59;4986839;28;101130;-79
2022/10/05 11:34:53;;;;;;;5.88;1.20;;;;;;;20.39;46.14;100640.16;5008416;28;97948;-75
2022/10/05 11:37:45;;;;;;;6.68;1.77;;;;;;;20.45;46.12;100653.03;4992483;28;97284;-76
2022/10/05 11:40:36;;;;;;;3.08;1.60;;;;;;;20.33;46.15;100644.09;4974187;28;97079;-92
2022/10/05 11:43:41;;;;;;;5.60;1.58;;;;;;;20.40;46.05;100649.84;5007765;28;97511;-92
2022/10/05 11:46:19;;;;;;;5.88;1.52;;;;;;;20.33;45.65;100636.09;4991747;28;98346;-90
2022/10/05 11:48:54;;;;;;;4.40;1.65;;;;;;;20.14;45.91;100619.66;4991943;28;97198;-92
2022/10/05 11:51:33;;;;;;;3.15;1.88;;;;;;;20.25;46.13;100625.09;4969581;28;96957;-88
2022/10/05 11:54:23;;;;;;;5.10;1.27;;;;;;;20.12;46.21;100603.75;4993054;28;101726;-88
2022/10/05 11:56:59;;;;;;;6.40;2.10;;;;;;;20.39;46.62;100618.81;4984045;28;100390;-92
2022/10/05 11:59:48;;;;;;;3.30;1.75;;;;;;;20.33;46.54;100606.78;4977836;28;97290;-89
2022/10/05 12:02:36;;;;;;;4.13;1.52;;;;;;;20.53;45.77;100617.84;4987511;28;97441;-84
2022/10/05 12:05:25;;;;;;;3.67;1.58;;;;;;;20.48;45.51;100603.97;4971702;28;101110;-83
2022/10/05 12:08:03;;;;;;;3.05;1.50;;;;;;;20.41;46.15;100603.53;4900764;28;101288;-83
2022/10/05 12:11:06;;;;;;;4.15;1.33;;;;;;;20.37;46.47;100610.06;4914353;28;97353;-83
2022/10/05 12:13:50;;;;;;;4.55;1.63;;;;;;;20.31;46.39;100587.34;4909947;28;97421;-82
2022/10/05 12:17:04;;;;;;;7.53;1.75;;;;;;;20.42;46.17;100602.59;4916884;28;101158;-83
2022/10/05 12:19:44;;;;;;;3.28;1.50;;;;;;;20.43;45.82;100601.63;4902197;28;101407;-83
2022/10/05 12:22:25;;;;;;;7.57;1.27;;;;;;;20.25;46.87;100562.97;4913000;28;99667;-83
2022/10/05 12:25:28;;;;;;;2.73;1.40;;;;;;;20.40;45.12;100614.34;4892205;28;97086;-84
2022/10/05 12:28:10;;;;;;;2.65;1.45;;;;;;;20.20;45.32;100581.94;4915254;28;101421;-83
2022/10/05 12:31:02;;;;;;;7.68;2.00;;;;;;;20.39;44.62;100593.94;4892327;28;101752;-83
2022/10/05 12:33:56;;;;;;;3.40;1.60;;;;;;;20.31;45.79;100600.69;4908411;28;97072;-83
2022/10/05 12:36:58;;;;;;;2.50;1.17;;;;;;;20.35;45.78;100580.00;4908377;28;98101;-83
2022/10/05 12:39:36;;;;;;;8.20;2.83;;;;;;;20.45;45.65;100598.84;4913336;28;101335;-83
2022/10/05 12:42:29;;;;;;;3.60;2.00;;;;;;;20.36;45.86;100589.69;4906059;28;101140;-82
2022/10/05 12:45:13;;;;;;;4.22;1.60;;;;;;;20.41;45.05;100579.56;4937083;28;97059;-90
2022/10/05 12:47:57;;;;;;;5.95;1.85;;;;;;;20.31;45.48;100566.03;4991838;28;97245;-88
2022/10/05 12:50:39;;;;;;;10.50;1.98;;;;;;;20.43;46.44;100603.44;4987723;28;101373;-86
2022/10/05 12:53:13;;;;;;;4.00;1.45;;;;;;;20.44;44.74;100581.16;4992541;28;98436;-85